createdAt,value
2022-09-25T00:01:37.104Z,96036.06
2022-09-25T00:04:03.487Z,96039.50
2022-09-25T00:06:30.548Z,96037.84
2022-09-25T00:08:56.828Z,96041.66
2022-09-25T00:11:26.762Z,96048.53
2022-09-25T00:13:54.293Z,96039.59
2022-09-25T00:16:24.302Z,96042.22
2022-09-25T00:19:09.062Z,96049.91
2022-09-25T00:21:36.352Z,96050.69
2022-09-25T00:24:06.037Z,96045.66
2022-09-25T00:26:35.166Z,96044.28
2022-09-25T00:29:02.207Z,96047.44
2022-09-25T00:31:28.913Z,96043.59
2022-09-25T00:33:58.136Z,96044.47
2022-09-25T00:36:23.949Z,96042.22
2022-09-25T00:38:49.993Z,96037.91
2022-09-25T00:41:21.252Z,96030.81
2022-09-25T00:43:50.832Z,96040.16
2022-09-25T00:46:24.122Z,96041.69
2022-09-25T00:49:02.915Z,96032.97
2022-09-25T00:51:37.743Z,96037.44
2022-09-25T00:54:06.446Z,96032.81
2022-09-25T00:56:38.977Z,96034.91
2022-09-25T00:59:07.605Z,96037.69
2022-09-25T01:01:33.619Z,96042.25
2022-09-25T01:03:59.800Z,96036.50
2022-09-25T01:06:26.672Z,96035.69
2022-09-25T01:08:52.763Z,96036.03
2022-09-25T01:11:21.660Z,96037.75
2022-09-25T01:13:47.524Z,96038.88
2022-09-25T01:16:19.304Z,96035.53
2022-09-25T01:19:11.375Z,96035.22
2022-09-25T01:21:49.298Z,96037.78
2022-09-25T01:24:27.144Z,96039.28
2022-09-25T01:27:17.242Z,96045.34
2022-09-25T01:29:50.636Z,96037.63
2022-09-25T01:32:48.686Z,96030.13
2022-09-25T01:35:17.552Z,96036.25
2022-09-25T01:38:01.109Z,96029.72
2022-09-25T01:40:32.672Z,96035.00
2022-09-25T01:43:15.662Z,96033.56
2022-09-25T01:45:53.070Z,96032.16
2022-09-25T01:48:24.625Z,96040.91
2022-09-25T01:50:58.386Z,96034.59
2022-09-25T01:53:31.735Z,96035.84
2022-09-25T01:56:05.128Z,96038.81
2022-09-25T01:58:41.192Z,96038.03
2022-09-25T02:01:14.188Z,96041.75
2022-09-25T02:03:50.817Z,96033.22
2022-09-25T02:06:20.185Z,96044.56
2022-09-25T02:08:53.265Z,96037.53
2022-09-25T02:11:19.507Z,96027.06
2022-09-25T02:13:57.363Z,96034.56
2022-09-25T02:16:30.468Z,96037.59
2022-09-25T02:19:14.945Z,96040.59
2022-09-25T02:21:44.915Z,96042.19
2022-09-25T02:24:29.191Z,96040.44
2022-09-25T02:26:55.563Z,96033.56
2022-09-25T02:29:22.507Z,96033.94
2022-09-25T02:31:53.327Z,96034.44
2022-09-25T02:34:20.279Z,96035.06
2022-09-25T02:36:46.379Z,96037.56
2022-09-25T02:39:16.118Z,96038.16
2022-09-25T02:41:47.747Z,96036.16
2022-09-25T02:44:34.569Z,96037.59
2022-09-25T02:47:07.347Z,96035.72
2022-09-25T02:50:11.273Z,96039.34
2022-09-25T02:52:49.236Z,96038.56
2022-09-25T02:55:24.907Z,96038.50
2022-09-25T02:58:00.622Z,96048.00
2022-09-25T03:00:27.341Z,96039.53
2022-09-25T03:02:58.749Z,96038.25
2022-09-25T03:05:25.641Z,96033.63
2022-09-25T03:08:11.778Z,96034.63
2022-09-25T03:10:37.977Z,96035.28
2022-09-25T03:13:22.500Z,96034.97
2022-09-25T03:15:54.938Z,96034.47
2022-09-25T03:18:21.572Z,96031.97
2022-09-25T03:20:47.311Z,96027.47
2022-09-25T03:23:13.305Z,96028.66
2022-09-25T03:25:39.167Z,96028.91
2022-09-25T03:28:11.841Z,96034.06
2022-09-25T03:30:40.248Z,96032.88
2022-09-25T03:33:11.075Z,96038.31
2022-09-25T03:35:37.956Z,96030.63
2022-09-25T03:38:04.133Z,96035.66
2022-09-25T03:40:32.510Z,96036.84
2022-09-25T03:42:58.600Z,96034.44
2022-09-25T03:45:24.412Z,96032.63
2022-09-25T03:47:50.295Z,96029.53
2022-09-25T03:50:16.152Z,96031.53
2022-09-25T03:52:42.029Z,96034.06
2022-09-25T03:55:07.928Z,96035.03
2022-09-25T03:57:33.697Z,96039.88
2022-09-25T04:00:01.446Z,96040.59
2022-09-25T04:02:27.940Z,96039.00
2022-09-25T04:04:54.618Z,96037.41
2022-09-25T04:07:21.753Z,96031.03
2022-09-25T04:09:47.574Z,96035.69
2022-09-25T04:12:14.106Z,96033.06
2022-09-25T04:14:41.955Z,96030.25
2022-09-25T04:17:07.715Z,96029.56
2022-09-25T04:19:33.421Z,96033.00
2022-09-25T04:21:59.231Z,96032.75
2022-09-25T04:24:43.395Z,96033.31
2022-09-25T04:27:09.891Z,96031.31
2022-09-25T04:29:36.542Z,96033.16
2022-09-25T04:32:21.242Z,96033.06
2022-09-25T04:34:47.098Z,96034.09
2022-09-25T04:37:13.411Z,96039.06
2022-09-25T04:39:39.701Z,96038.72
2022-09-25T04:42:05.645Z,96031.97
2022-09-25T04:44:31.379Z,96035.66
2022-09-25T04:46:57.160Z,96041.31
2022-09-25T04:49:23.640Z,96037.41
2022-09-25T04:51:49.406Z,96034.97
2022-09-25T04:54:15.661Z,96034.66
2022-09-25T04:56:44.221Z,96039.34
2022-09-25T04:59:16.157Z,96033.38
2022-09-25T05:01:42.102Z,96032.34
2022-09-25T05:04:09.009Z,96037.00
2022-09-25T05:06:34.926Z,96030.81
2022-09-25T05:09:01.930Z,96037.22
2022-09-25T05:11:28.155Z,96044.13
2022-09-25T05:13:53.912Z,96036.88
2022-09-25T05:16:19.771Z,96040.38
2022-09-25T05:18:45.595Z,96033.66
2022-09-25T05:21:11.436Z,96034.97
2022-09-25T05:23:37.210Z,96032.72
2022-09-25T05:26:03.070Z,96033.50
2022-09-25T05:28:29.719Z,96037.75
2022-09-25T05:31:02.062Z,96034.56
2022-09-25T05:33:28.119Z,96038.44
2022-09-25T05:35:53.881Z,96037.97
2022-09-25T05:38:19.667Z,96037.50
2022-09-25T05:40:45.647Z,96039.94
2022-09-25T05:43:11.868Z,96032.41
2022-09-25T05:45:37.737Z,96033.09
2022-09-25T05:48:06.402Z,96038.66
2022-09-25T05:50:32.767Z,96037.06
2022-09-25T05:53:00.681Z,96041.78
2022-09-25T05:55:27.677Z,96044.03
2022-09-25T05:57:53.508Z,96031.69
2022-09-25T06:00:19.493Z,96032.53
2022-09-25T06:02:45.409Z,96030.09
2022-09-25T06:05:11.196Z,96035.00
2022-09-25T06:07:37.060Z,96039.72
2022-09-25T06:10:03.075Z,96038.00
2022-09-25T06:12:29.762Z,96038.66
2022-09-25T06:14:55.774Z,96032.81
2022-09-25T06:17:21.707Z,96031.00
2022-09-25T06:19:47.575Z,96039.72
2022-09-25T06:22:13.519Z,96035.66
2022-09-25T06:24:39.468Z,96039.78
2022-09-25T06:27:06.223Z,96043.34
2022-09-25T06:29:32.006Z,96040.84
2022-09-25T06:31:57.772Z,96039.88
2022-09-25T06:34:23.596Z,96033.66
2022-09-25T06:36:49.396Z,96044.47
2022-09-25T06:39:15.179Z,96042.06
2022-09-25T06:41:41.661Z,96043.81
2022-09-25T06:44:08.384Z,96047.94
2022-09-25T06:46:35.682Z,96046.56
2022-09-25T06:49:01.558Z,96049.53
2022-09-25T06:51:31.656Z,96048.50
2022-09-25T06:53:57.961Z,96046.44
2022-09-25T06:56:23.906Z,96057.53
2022-09-25T06:58:49.845Z,96056.63
2022-09-25T07:01:15.863Z,96058.13
2022-09-25T07:03:45.006Z,96050.47
2022-09-25T07:06:15.106Z,96057.69
2022-09-25T07:08:43.008Z,96057.69
2022-09-25T07:11:14.772Z,96066.13
2022-09-25T07:13:41.274Z,96059.72
2022-09-25T07:16:11.489Z,96058.34
2022-09-25T07:18:37.623Z,96056.28
2022-09-25T07:21:12.467Z,96065.56
2022-09-25T07:23:38.846Z,96065.25
2022-09-25T07:26:12.601Z,96060.06
2022-09-25T07:28:40.419Z,96070.25
2022-09-25T07:31:18.560Z,96070.81
2022-09-25T07:33:45.464Z,96072.25
2022-09-25T07:36:11.626Z,96075.50
2022-09-25T07:38:38.000Z,96075.41
2022-09-25T07:41:05.534Z,96075.94
2022-09-25T07:43:34.903Z,96069.88
2022-09-25T07:46:01.052Z,96077.38
2022-09-25T07:48:29.913Z,96078.44
2022-09-25T07:51:02.165Z,96078.63
2022-09-25T07:53:28.062Z,96085.69
2022-09-25T07:56:06.176Z,96079.81
2022-09-25T07:58:34.462Z,96080.78
2022-09-25T08:01:01.746Z,96082.25
2022-09-25T08:03:30.858Z,96080.34
2022-09-25T08:06:05.796Z,96084.81
2022-09-25T08:08:33.700Z,96088.38
2022-09-25T08:11:02.121Z,96090.03
2022-09-25T08:13:29.329Z,96095.09
2022-09-25T08:15:55.737Z,96092.31
2022-09-25T08:18:21.886Z,96089.94
2022-09-25T08:20:47.690Z,96099.63
2022-09-25T08:23:13.524Z,96094.00
2022-09-25T08:25:39.307Z,96098.09
2022-09-25T08:28:05.647Z,96091.38
2022-09-25T08:30:32.168Z,96095.31
2022-09-25T08:32:57.999Z,96096.59
2022-09-25T08:35:23.873Z,96101.84
2022-09-25T08:37:49.733Z,96106.34
2022-09-25T08:40:22.617Z,96107.63
2022-09-25T08:42:52.021Z,96102.25
2022-09-25T08:45:45.924Z,96100.47
2022-09-25T08:48:39.230Z,96105.28
2022-09-25T08:51:06.065Z,96097.34
2022-09-25T08:53:34.324Z,96098.94
2022-09-25T08:56:14.137Z,96105.53
2022-09-25T08:58:42.918Z,96102.66
2022-09-25T09:01:14.669Z,96102.16
2022-09-25T09:03:54.478Z,96100.88
2022-09-25T09:06:22.398Z,96108.97
2022-09-25T09:08:57.697Z,96100.66
2022-09-25T09:11:31.684Z,96102.94
2022-09-25T09:14:02.506Z,96102.97
2022-09-25T09:16:36.552Z,96102.22
2022-09-25T09:19:05.150Z,96102.13
2022-09-25T09:21:43.908Z,96100.47
2022-09-25T09:24:15.674Z,96099.59
2022-09-25T09:26:51.404Z,96105.00
2022-09-25T09:29:43.820Z,96100.63
2022-09-25T09:32:10.614Z,96108.88
2022-09-25T09:35:07.091Z,96112.66
2022-09-25T09:37:54.512Z,96110.19
2022-09-25T09:40:24.705Z,96109.53
2022-09-25T09:43:05.727Z,96106.22
2022-09-25T09:45:44.970Z,96104.25
2022-09-25T09:48:19.303Z,96107.50
2022-09-25T09:50:56.033Z,96106.97
2022-09-25T09:53:36.684Z,96103.84
2022-09-25T09:56:10.121Z,96098.06
2022-09-25T09:58:41.578Z,96101.88
2022-09-25T10:01:29.093Z,96095.00
2022-09-25T10:04:08.793Z,96096.13
2022-09-25T10:06:38.540Z,96108.53
2022-09-25T10:09:06.161Z,96093.75
2022-09-25T10:11:33.087Z,96103.22
2022-09-25T10:14:02.643Z,96098.31
2022-09-25T10:16:29.581Z,96086.94
2022-09-25T10:19:04.689Z,96095.44
2022-09-25T10:22:02.927Z,96093.38
2022-09-25T10:24:52.363Z,96085.00
2022-09-25T10:27:24.073Z,96090.22
2022-09-25T10:30:08.644Z,96096.91
2022-09-25T10:33:12.727Z,96098.75
2022-09-25T10:35:38.391Z,96102.13
2022-09-25T10:38:15.871Z,96092.44
2022-09-25T10:40:45.910Z,96092.06
2022-09-25T10:43:11.651Z,96089.03
2022-09-25T10:45:40.048Z,96092.22
2022-09-25T10:48:46.456Z,96091.25
2022-09-25T10:51:16.632Z,96091.47
2022-09-25T10:53:43.581Z,96084.38
2022-09-25T10:56:13.031Z,96094.38
2022-09-25T10:58:47.187Z,96093.00
2022-09-25T11:01:15.487Z,96089.09
2022-09-25T11:03:48.678Z,96080.25
2022-09-25T11:06:25.199Z,96086.56
2022-09-25T11:09:02.306Z,96085.94
2022-09-25T11:11:28.222Z,96088.31
2022-09-25T11:14:00.405Z,96088.88
2022-09-25T11:16:45.742Z,96091.63
2022-09-25T11:19:24.637Z,96089.94
2022-09-25T11:21:59.646Z,96095.00
2022-09-25T11:24:36.425Z,96089.00
2022-09-25T11:27:20.057Z,96081.63
2022-09-25T11:30:07.489Z,96076.44
2022-09-25T11:32:52.633Z,96077.22
2022-09-25T11:35:40.155Z,96074.53
2022-09-25T11:38:11.990Z,96073.66
2022-09-25T11:41:12.355Z,96070.72
2022-09-25T11:43:58.354Z,96076.53
2022-09-25T11:46:36.547Z,96074.69
2022-09-25T11:49:25.950Z,96078.41
2022-09-25T11:52:41.188Z,96074.41
2022-09-25T11:55:25.769Z,96071.44
2022-09-25T11:58:14.111Z,96065.97
2022-09-25T12:00:55.042Z,96067.38
2022-09-25T12:03:36.172Z,96061.13
2022-09-25T12:06:20.940Z,96057.94
2022-09-25T12:08:58.654Z,96069.22
2022-09-25T12:11:40.631Z,96060.31
2022-09-25T12:14:15.941Z,96066.03
2022-09-25T12:16:47.525Z,96065.22
2022-09-25T12:19:23.715Z,96065.25
2022-09-25T12:22:03.505Z,96061.28
2022-09-25T12:24:47.884Z,96060.50
2022-09-25T12:27:20.361Z,96055.13
2022-09-25T12:29:51.877Z,96051.41
2022-09-25T12:32:29.444Z,96044.66
2022-09-25T12:35:33.183Z,96048.44
2022-09-25T12:38:10.269Z,96054.25
2022-09-25T12:40:45.530Z,96053.53
2022-09-25T12:43:26.768Z,96047.28
2022-09-25T12:46:14.171Z,96039.09
2022-09-25T12:48:49.233Z,96048.34
2022-09-25T12:51:39.797Z,96045.94
2022-09-25T12:54:31.910Z,96042.28
2022-09-25T12:57:13.088Z,96037.09
2022-09-25T12:59:46.862Z,96034.41
2022-09-25T13:02:18.671Z,96032.72
2022-09-25T13:04:56.335Z,96037.56
2022-09-25T13:07:54.515Z,96030.47
2022-09-25T13:10:26.668Z,96027.03
2022-09-25T13:12:56.314Z,96019.59
2022-09-25T13:15:25.901Z,96014.81
2022-09-25T13:17:51.809Z,96008.97
2022-09-25T13:20:26.527Z,96011.22
2022-09-25T13:23:17.455Z,96012.25
2022-09-25T13:25:52.995Z,95997.28
2022-09-25T13:28:25.690Z,96007.28
2022-09-25T13:30:59.416Z,96009.06
2022-09-25T13:33:25.766Z,96017.06
2022-09-25T13:36:07.294Z,96008.47
2022-09-25T13:38:58.340Z,96008.56
2022-09-25T13:41:24.987Z,96001.41
2022-09-25T13:44:28.318Z,96000.44
2022-09-25T13:47:17.194Z,96003.13
2022-09-25T13:49:51.933Z,96003.44
2022-09-25T13:53:09.659Z,96005.38
2022-09-25T13:56:02.409Z,95999.19
2022-09-25T13:58:33.619Z,95998.56
2022-09-25T14:01:02.078Z,95991.69
2022-09-25T14:03:46.088Z,95998.66
2022-09-25T14:06:23.998Z,95995.56
2022-09-25T14:08:52.696Z,95993.16
2022-09-25T14:11:23.879Z,95987.81
2022-09-25T14:13:54.513Z,95988.72
2022-09-25T14:16:45.950Z,95979.50
2022-09-25T14:19:18.550Z,95979.91
2022-09-25T14:21:47.409Z,95985.22
2022-09-25T14:24:29.342Z,95980.59
2022-09-25T14:26:57.388Z,95978.53
2022-09-25T14:29:30.697Z,95975.25
2022-09-25T14:32:17.610Z,95973.03
2022-09-25T14:35:21.244Z,95978.88
2022-09-25T14:38:25.716Z,95981.28
2022-09-25T14:41:23.783Z,95977.50
2022-09-25T14:44:26.477Z,95965.09
2022-09-25T14:46:55.055Z,95962.50
2022-09-25T14:49:30.074Z,95959.84
2022-09-25T14:52:01.330Z,95964.66
2022-09-25T14:54:32.139Z,95959.41
2022-09-25T14:56:58.878Z,95959.09
2022-09-25T14:59:36.751Z,95962.78
2022-09-25T15:02:03.763Z,95955.88
2022-09-25T15:04:32.318Z,95962.63
2022-09-25T15:07:07.238Z,95964.09
2022-09-25T15:09:46.430Z,95962.31
2022-09-25T15:12:19.447Z,95964.03
2022-09-25T15:15:10.336Z,95958.28
2022-09-25T15:17:58.479Z,95962.75
2022-09-25T15:20:28.012Z,95960.09
2022-09-25T15:23:16.668Z,95955.91
2022-09-25T15:25:47.147Z,95956.19
2022-09-25T15:28:17.360Z,95947.69
2022-09-25T15:30:45.754Z,95947.94
2022-09-25T15:33:25.826Z,95945.84
2022-09-25T15:36:03.006Z,95944.28
2022-09-25T15:38:36.731Z,95949.31
2022-09-25T15:41:06.949Z,95946.91
2022-09-25T15:43:33.023Z,95949.56
2022-09-25T15:46:08.290Z,95945.59
2022-09-25T15:48:36.309Z,95950.91
2022-09-25T15:51:17.807Z,95949.59
2022-09-25T15:53:50.598Z,95936.28
2022-09-25T15:56:27.771Z,95941.84
2022-09-25T15:58:56.255Z,95927.00
2022-09-25T16:01:49.630Z,95929.69
2022-09-25T16:04:40.795Z,95929.66
2022-09-25T16:07:23.402Z,95929.69
2022-09-25T16:09:52.027Z,95928.09
2022-09-25T16:12:31.622Z,95925.44
2022-09-25T16:14:57.935Z,95927.59
2022-09-25T16:17:33.085Z,95924.38
2022-09-25T16:20:05.698Z,95928.13
2022-09-25T16:22:39.476Z,95930.97
2022-09-25T16:25:16.462Z,95929.38
2022-09-25T16:27:45.923Z,95936.25
2022-09-25T16:30:21.544Z,95929.63
2022-09-25T16:32:51.189Z,95934.09
2022-09-25T16:36:08.161Z,95926.69
2022-09-25T16:38:37.521Z,95932.78
2022-09-25T16:41:08.954Z,95934.88
2022-09-25T16:43:38.609Z,95927.72
2022-09-25T16:46:17.096Z,95922.13
2022-09-25T16:48:44.963Z,95923.19
2022-09-25T16:51:19.293Z,95924.22
2022-09-25T16:53:45.811Z,95923.91
2022-09-25T16:56:19.927Z,95917.31
2022-09-25T16:58:46.517Z,95921.78
2022-09-25T17:01:12.430Z,95929.22
2022-09-25T17:03:49.085Z,95927.28
2022-09-25T17:06:22.690Z,95927.78
2022-09-25T17:08:49.442Z,95927.47
2022-09-25T17:11:17.550Z,95928.81
2022-09-25T17:13:47.206Z,95928.50
2022-09-25T17:16:13.216Z,95932.19
2022-09-25T17:18:40.543Z,95930.78
2022-09-25T17:21:13.533Z,95928.13
2022-09-25T17:23:39.405Z,95929.22
2022-09-25T17:26:15.328Z,95926.25
2022-09-25T17:28:41.118Z,95924.41
2022-09-25T17:31:14.692Z,95922.75
2022-09-25T17:33:40.889Z,95926.69
2022-09-25T17:36:10.662Z,95924.84
2022-09-25T17:38:36.981Z,95935.03
2022-09-25T17:41:06.313Z,95926.88
2022-09-25T17:43:32.551Z,95925.47
2022-09-25T17:46:00.354Z,95931.72
2022-09-25T17:48:29.398Z,95930.38
2022-09-25T17:50:57.137Z,95931.97
2022-09-25T17:53:28.981Z,95943.59
2022-09-25T17:55:55.400Z,95940.19
2022-09-25T17:58:22.981Z,95937.47
2022-09-25T18:00:50.554Z,95936.16
2022-09-25T18:03:18.516Z,95932.81
2022-09-25T18:05:44.453Z,95941.75
2022-09-25T18:08:11.442Z,95937.19
2022-09-25T18:10:37.727Z,95933.94
2022-09-25T18:13:05.764Z,95932.56
2022-09-25T18:15:33.171Z,95933.16
2022-09-25T18:17:59.189Z,95922.47
2022-09-25T18:20:44.249Z,95922.00
2022-09-25T18:23:10.274Z,95915.91
2022-09-25T18:25:39.410Z,95920.72
2022-09-25T18:28:05.302Z,95925.16
2022-09-25T18:30:31.506Z,95929.84
2022-09-25T18:32:57.344Z,95926.22
2022-09-25T18:35:23.368Z,95928.53
2022-09-25T18:37:49.535Z,95930.66
2022-09-25T18:40:18.480Z,95931.28
2022-09-25T18:42:44.672Z,95926.69
2022-09-25T18:45:12.439Z,95933.03
2022-09-25T18:47:39.961Z,95934.47
2022-09-25T18:50:06.617Z,95934.72
2022-09-25T18:52:32.659Z,95932.06
2022-09-25T18:55:01.582Z,95933.03
2022-09-25T18:57:28.051Z,95930.53
2022-09-25T18:59:54.929Z,95928.72
2022-09-25T19:02:25.898Z,95931.47
2022-09-25T19:04:56.169Z,95928.16
2022-09-25T19:07:23.830Z,95926.72
2022-09-25T19:09:50.767Z,95921.03
2022-09-25T19:12:17.587Z,95920.19
2022-09-25T19:14:44.904Z,95921.03
2022-09-25T19:17:12.198Z,95919.72
2022-09-25T19:19:42.252Z,95918.84
2022-09-25T19:22:15.101Z,95918.31
2022-09-25T19:24:41.282Z,95921.22
2022-09-25T19:27:07.682Z,95919.91
2022-09-25T19:29:35.132Z,95923.72
2022-09-25T19:32:08.881Z,95923.97
2022-09-25T19:34:34.800Z,95924.34
2022-09-25T19:37:01.156Z,95925.63
2022-09-25T19:39:27.222Z,95928.72
2022-09-25T19:41:54.375Z,95915.34
2022-09-25T19:44:23.520Z,95922.03
2022-09-25T19:46:50.616Z,95919.19
2022-09-25T19:49:17.724Z,95919.97
2022-09-25T19:51:44.291Z,95920.28
2022-09-25T19:54:13.333Z,95917.78
2022-09-25T19:56:42.281Z,95909.00
2022-09-25T19:59:13.534Z,95912.19
2022-09-25T20:01:42.086Z,95905.31
2022-09-25T20:04:14.265Z,95907.63
2022-09-25T20:06:44.171Z,95904.09
2022-09-25T20:09:10.684Z,95898.44
2022-09-25T20:11:36.870Z,95902.41
2022-09-25T20:14:04.842Z,95897.31
2022-09-25T20:16:31.077Z,95894.25
2022-09-25T20:18:59.569Z,95884.63
2022-09-25T20:21:27.056Z,95881.63
2022-09-25T20:23:58.659Z,95882.22
2022-09-25T20:26:25.479Z,95875.81
2022-09-25T20:28:53.769Z,95871.47
2022-09-25T20:31:20.622Z,95875.63
2022-09-25T20:33:47.142Z,95872.50
2022-09-25T20:36:14.591Z,95881.75
2022-09-25T20:38:41.250Z,95877.44
2022-09-25T20:41:10.592Z,95870.31
2022-09-25T20:43:37.716Z,95874.66
2022-09-25T20:46:09.138Z,95870.72
2022-09-25T20:48:41.134Z,95878.75
2022-09-25T20:51:09.678Z,95870.56
2022-09-25T20:53:36.882Z,95882.94
2022-09-25T20:56:11.211Z,95876.88
2022-09-25T20:58:38.967Z,95873.03
2022-09-25T21:01:07.811Z,95868.50
2022-09-25T21:03:36.353Z,95865.72
2022-09-25T21:06:04.753Z,95866.50
2022-09-25T21:08:31.627Z,95868.50
2022-09-25T21:11:00.928Z,95859.88
2022-09-25T21:13:32.043Z,95856.13
2022-09-25T21:16:13.267Z,95853.59
2022-09-25T21:18:40.814Z,95856.84
2022-09-25T21:21:12.679Z,95854.47
2022-09-25T21:23:40.597Z,95853.22
2022-09-25T21:26:12.883Z,95855.44
2022-09-25T21:28:41.414Z,95848.09
2022-09-25T21:31:11.100Z,95854.69
2022-09-25T21:33:37.460Z,95847.72
2022-09-25T21:36:04.287Z,95846.25
2022-09-25T21:38:30.357Z,95840.91
2022-09-25T21:40:59.259Z,95834.03
2022-09-25T21:43:26.128Z,95837.03
2022-09-25T21:45:52.410Z,95837.97
2022-09-25T21:48:19.602Z,95837.56
2022-09-25T21:50:57.428Z,95840.72
2022-09-25T21:53:24.472Z,95831.47
2022-09-25T21:56:03.672Z,95829.88
2022-09-25T21:58:30.194Z,95824.22
2022-09-25T22:01:17.703Z,95823.91
2022-09-25T22:03:47.406Z,95824.03
2022-09-25T22:06:19.420Z,95827.06
2022-09-25T22:08:51.103Z,95825.19
2022-09-25T22:11:18.666Z,95818.59
2022-09-25T22:13:45.820Z,95815.72
2022-09-25T22:16:16.016Z,95819.66
2022-09-25T22:18:47.278Z,95819.47
2022-09-25T22:21:16.071Z,95818.00
2022-09-25T22:23:42.169Z,95821.16
2022-09-25T22:26:08.657Z,95812.56
2022-09-25T22:28:35.653Z,95817.44
2022-09-25T22:31:14.293Z,95813.59
2022-09-25T22:33:41.306Z,95806.97
2022-09-25T22:36:08.923Z,95819.97
2022-09-25T22:38:35.273Z,95812.19
2022-09-25T22:41:06.099Z,95803.53
2022-09-25T22:43:31.961Z,95807.88
2022-09-25T22:45:58.169Z,95802.41
2022-09-25T22:48:24.223Z,95800.81
2022-09-25T22:50:55.047Z,95798.59
2022-09-25T22:53:21.715Z,95792.00
2022-09-25T22:55:47.890Z,95795.25
2022-09-25T22:58:15.153Z,95797.94
2022-09-25T23:00:46.494Z,95788.69
2022-09-25T23:03:12.786Z,95788.94
2022-09-25T23:05:39.709Z,95785.19
2022-09-25T23:08:06.875Z,95782.53
2022-09-25T23:11:02.460Z,95778.97
2022-09-25T23:13:23.536Z,95769.13
2022-09-25T23:15:49.312Z,95770.69
2022-09-25T23:18:15.262Z,95759.13
2022-09-25T23:20:41.052Z,95766.59
2022-09-25T23:23:06.828Z,95765.88
2022-09-25T23:25:33.225Z,95758.94
2022-09-25T23:28:00.897Z,95759.66
2022-09-25T23:30:27.118Z,95761.56
2022-09-25T23:32:53.219Z,95766.03
2022-09-25T23:35:19.330Z,95755.81
2022-09-25T23:37:45.443Z,95753.81
2022-09-25T23:40:15.352Z,95745.13
2022-09-25T23:42:42.601Z,95752.72
2022-09-25T23:45:10.484Z,95751.53
2022-09-25T23:47:36.412Z,95749.25
2022-09-25T23:50:04.841Z,95746.47
2022-09-25T23:52:30.842Z,95740.06
2022-09-25T23:54:57.101Z,95738.72
2022-09-25T23:57:23.212Z,95731.19
2022-09-25T23:59:48.940Z,95734.03
